sensor_id;sensor_type;location;lat;lon;timestamp;P1;durP1;ratioP1;P2;durP2;ratioP2
23304;SDS011;11821;51.456;8.844;2023-05-28T00:01:18;7.68;;;4.15;;
23304;SDS011;11821;51.456;8.844;2023-05-28T00:03:45;6.40;;;4.32;;
23304;SDS011;11821;51.456;8.844;2023-05-28T00:06:12;6.32;;;4.00;;
23304;SDS011;11821;51.456;8.844;2023-05-28T00:08:39;5.68;;;3.90;;
23304;SDS011;11821;51.456;8.844;2023-05-28T00:11:05;4.90;;;3.80;;
23304;SDS011;11821;51.456;8.844;2023-05-28T00:13:32;6.47;;;4.40;;
23304;SDS011;11821;51.456;8.844;2023-05-28T00:15:59;7.78;;;3.97;;
23304;SDS011;11821;51.456;8.844;2023-05-28T00:18:26;5.22;;;3.78;;
23304;SDS011;11821;51.456;8.844;2023-05-28T00:20:54;6.32;;;4.18;;
23304;SDS011;11821;51.456;8.844;2023-05-28T00:23:21;6.15;;;4.25;;
23304;SDS011;11821;51.456;8.844;2023-05-28T00:25:48;5.35;;;4.03;;
23304;SDS011;11821;51.456;8.844;2023-05-28T00:28:14;4.55;;;4.13;;
23304;SDS011;11821;51.456;8.844;2023-05-28T00:30:41;5.85;;;4.28;;
23304;SDS011;11821;51.456;8.844;2023-05-28T00:33:08;6.78;;;4.22;;
23304;SDS011;11821;51.456;8.844;2023-05-28T00:35:35;5.47;;;3.88;;
23304;SDS011;11821;51.456;8.844;2023-05-28T00:38:01;4.43;;;3.63;;
23304;SDS011;11821;51.456;8.844;2023-05-28T00:40:28;4.50;;;4.00;;
23304;SDS011;11821;51.456;8.844;2023-05-28T00:42:55;7.60;;;3.78;;
23304;SDS011;11821;51.456;8.844;2023-05-28T00:45:22;5.93;;;3.95;;
23304;SDS011;11821;51.456;8.844;2023-05-28T00:47:49;6.40;;;4.15;;
23304;SDS011;11821;51.456;8.844;2023-05-28T00:50:16;7.20;;;3.78;;
23304;SDS011;11821;51.456;8.844;2023-05-28T00:52:44;5.80;;;4.30;;
23304;SDS011;11821;51.456;8.844;2023-05-28T00:55:13;8.77;;;4.30;;
23304;SDS011;11821;51.456;8.844;2023-05-28T00:57:40;8.32;;;4.43;;
23304;SDS011;11821;51.456;8.844;2023-05-28T01:00:07;8.00;;;3.80;;
23304;SDS011;11821;51.456;8.844;2023-05-28T01:02:39;4.35;;;3.92;;
23304;SDS011;11821;51.456;8.844;2023-05-28T01:05:06;6.45;;;4.88;;
23304;SDS011;11821;51.456;8.844;2023-05-28T01:07:34;8.23;;;4.20;;
23304;SDS011;11821;51.456;8.844;2023-05-28T01:10:01;5.40;;;4.07;;
23304;SDS011;11821;51.456;8.844;2023-05-28T01:12:28;5.90;;;4.32;;
23304;SDS011;11821;51.456;8.844;2023-05-28T01:14:57;4.25;;;3.85;;
23304;SDS011;11821;51.456;8.844;2023-05-28T01:17:24;4.50;;;4.00;;
23304;SDS011;11821;51.456;8.844;2023-05-28T01:19:51;6.57;;;4.03;;
23304;SDS011;11821;51.456;8.844;2023-05-28T01:22:19;5.75;;;4.05;;
23304;SDS011;11821;51.456;8.844;2023-05-28T01:24:48;7.05;;;3.97;;
23304;SDS011;11821;51.456;8.844;2023-05-28T01:27:17;7.90;;;4.28;;
23304;SDS011;11821;51.456;8.844;2023-05-28T01:29:45;5.57;;;3.97;;
23304;SDS011;11821;51.456;8.844;2023-05-28T01:32:11;5.55;;;4.03;;
23304;SDS011;11821;51.456;8.844;2023-05-28T01:34:38;7.90;;;4.20;;
23304;SDS011;11821;51.456;8.844;2023-05-28T01:37:07;6.20;;;4.50;;
23304;SDS011;11821;51.456;8.844;2023-05-28T01:39:52;6.63;;;4.25;;
23304;SDS011;11821;51.456;8.844;2023-05-28T01:42:19;6.78;;;4.32;;
23304;SDS011;11821;51.456;8.844;2023-05-28T01:44:46;5.05;;;3.70;;
23304;SDS011;11821;51.456;8.844;2023-05-28T01:47:13;6.20;;;3.95;;
23304;SDS011;11821;51.456;8.844;2023-05-28T01:49:41;6.35;;;4.28;;
23304;SDS011;11821;51.456;8.844;2023-05-28T01:52:09;7.00;;;4.35;;
23304;SDS011;11821;51.456;8.844;2023-05-28T01:54:38;6.53;;;4.47;;
23304;SDS011;11821;51.456;8.844;2023-05-28T01:57:06;9.75;;;5.15;;
23304;SDS011;11821;51.456;8.844;2023-05-28T01:59:32;5.95;;;4.28;;
23304;SDS011;11821;51.456;8.844;2023-05-28T02:01:59;8.50;;;4.43;;
23304;SDS011;11821;51.456;8.844;2023-05-28T02:04:26;7.35;;;4.30;;
23304;SDS011;11821;51.456;8.844;2023-05-28T02:06:52;6.72;;;4.97;;
23304;SDS011;11821;51.456;8.844;2023-05-28T02:09:19;7.07;;;4.50;;
23304;SDS011;11821;51.456;8.844;2023-05-28T02:11:46;8.38;;;4.20;;
23304;SDS011;11821;51.456;8.844;2023-05-28T02:14:13;8.23;;;4.90;;
23304;SDS011;11821;51.456;8.844;2023-05-28T02:16:46;5.20;;;4.20;;
23304;SDS011;11821;51.456;8.844;2023-05-28T02:19:18;8.13;;;4.32;;
23304;SDS011;11821;51.456;8.844;2023-05-28T02:21:45;6.25;;;5.30;;
23304;SDS011;11821;51.456;8.844;2023-05-28T02:24:12;7.72;;;4.45;;
23304;SDS011;11821;51.456;8.844;2023-05-28T02:26:41;7.57;;;5.35;;
23304;SDS011;11821;51.456;8.844;2023-05-28T02:29:07;5.60;;;4.75;;
23304;SDS011;11821;51.456;8.844;2023-05-28T02:31:35;9.82;;;5.07;;
23304;SDS011;11821;51.456;8.844;2023-05-28T02:34:02;7.43;;;4.90;;
23304;SDS011;11821;51.456;8.844;2023-05-28T02:36:29;8.43;;;4.50;;
23304;SDS011;11821;51.456;8.844;2023-05-28T02:38:58;4.97;;;4.35;;
23304;SDS011;11821;51.456;8.844;2023-05-28T02:44:46;8.15;;;5.00;;
23304;SDS011;11821;51.456;8.844;2023-05-28T02:47:16;6.45;;;4.32;;
23304;SDS011;11821;51.456;8.844;2023-05-28T02:49:43;5.28;;;4.72;;
23304;SDS011;11821;51.456;8.844;2023-05-28T02:52:11;5.35;;;4.85;;
23304;SDS011;11821;51.456;8.844;2023-05-28T02:54:42;9.07;;;4.32;;
23304;SDS011;11821;51.456;8.844;2023-05-28T02:57:09;7.00;;;4.57;;
23304;SDS011;11821;51.456;8.844;2023-05-28T02:59:36;5.78;;;4.13;;
23304;SDS011;11821;51.456;8.844;2023-05-28T03:02:03;7.45;;;4.40;;
23304;SDS011;11821;51.456;8.844;2023-05-28T03:04:30;6.75;;;4.53;;
23304;SDS011;11821;51.456;8.844;2023-05-28T03:06:58;9.10;;;4.25;;
23304;SDS011;11821;51.456;8.844;2023-05-28T03:09:25;8.25;;;4.70;;
23304;SDS011;11821;51.456;8.844;2023-05-28T03:11:52;8.10;;;4.97;;
23304;SDS011;11821;51.456;8.844;2023-05-28T03:14:20;7.95;;;4.07;;
23304;SDS011;11821;51.456;8.844;2023-05-28T03:16:47;7.68;;;4.30;;
23304;SDS011;11821;51.456;8.844;2023-05-28T03:19:21;7.70;;;4.40;;
23304;SDS011;11821;51.456;8.844;2023-05-28T03:21:47;5.22;;;3.92;;
23304;SDS011;11821;51.456;8.844;2023-05-28T03:24:15;5.90;;;4.72;;
23304;SDS011;11821;51.456;8.844;2023-05-28T03:26:46;6.90;;;4.55;;
23304;SDS011;11821;51.456;8.844;2023-05-28T03:29:19;8.13;;;4.82;;
23304;SDS011;11821;51.456;8.844;2023-05-28T03:31:57;9.02;;;4.95;;
23304;SDS011;11821;51.456;8.844;2023-05-28T03:34:24;7.00;;;4.40;;
23304;SDS011;11821;51.456;8.844;2023-05-28T03:36:51;9.55;;;4.20;;
23304;SDS011;11821;51.456;8.844;2023-05-28T03:39:18;4.95;;;4.05;;
23304;SDS011;11821;51.456;8.844;2023-05-28T03:41:48;7.65;;;4.88;;
23304;SDS011;11821;51.456;8.844;2023-05-28T03:44:14;5.85;;;4.75;;
23304;SDS011;11821;51.456;8.844;2023-05-28T03:46:44;6.60;;;4.88;;
23304;SDS011;11821;51.456;8.844;2023-05-28T03:49:12;5.55;;;4.88;;
23304;SDS011;11821;51.456;8.844;2023-05-28T03:51:38;6.22;;;4.65;;
23304;SDS011;11821;51.456;8.844;2023-05-28T03:54:05;6.90;;;5.00;;
23304;SDS011;11821;51.456;8.844;2023-05-28T03:56:33;5.00;;;3.90;;
23304;SDS011;11821;51.456;8.844;2023-05-28T03:59:03;6.93;;;4.38;;
23304;SDS011;11821;51.456;8.844;2023-05-28T04:01:29;7.25;;;4.75;;
23304;SDS011;11821;51.456;8.844;2023-05-28T04:03:56;9.43;;;4.30;;
23304;SDS011;11821;51.456;8.844;2023-05-28T04:06:23;8.48;;;4.75;;
23304;SDS011;11821;51.456;8.844;2023-05-28T04:08:51;7.28;;;4.88;;
23304;SDS011;11821;51.456;8.844;2023-05-28T04:11:18;5.18;;;4.22;;
23304;SDS011;11821;51.456;8.844;2023-05-28T04:13:47;5.95;;;4.25;;
23304;SDS011;11821;51.456;8.844;2023-05-28T04:16:14;5.95;;;4.60;;
23304;SDS011;11821;51.456;8.844;2023-05-28T04:18:42;5.60;;;4.10;;
23304;SDS011;11821;51.456;8.844;2023-05-28T04:21:09;8.25;;;4.82;;
23304;SDS011;11821;51.456;8.844;2023-05-28T04:23:38;6.82;;;4.28;;
23304;SDS011;11821;51.456;8.844;2023-05-28T04:26:04;8.50;;;5.28;;
23304;SDS011;11821;51.456;8.844;2023-05-28T04:28:32;5.32;;;4.40;;
23304;SDS011;11821;51.456;8.844;2023-05-28T04:30:59;5.85;;;4.72;;
23304;SDS011;11821;51.456;8.844;2023-05-28T04:33:27;4.97;;;4.15;;
23304;SDS011;11821;51.456;8.844;2023-05-28T04:35:57;9.95;;;4.82;;
23304;SDS011;11821;51.456;8.844;2023-05-28T04:38:24;5.05;;;3.95;;
23304;SDS011;11821;51.456;8.844;2023-05-28T04:40:51;7.40;;;4.18;;
23304;SDS011;11821;51.456;8.844;2023-05-28T04:43:18;7.45;;;3.95;;
23304;SDS011;11821;51.456;8.844;2023-05-28T04:45:47;5.57;;;4.28;;
23304;SDS011;11821;51.456;8.844;2023-05-28T04:48:14;7.97;;;4.45;;
23304;SDS011;11821;51.456;8.844;2023-05-28T04:50:40;6.20;;;4.28;;
23304;SDS011;11821;51.456;8.844;2023-05-28T04:53:07;6.03;;;4.18;;
23304;SDS011;11821;51.456;8.844;2023-05-28T04:55:34;8.38;;;4.75;;
23304;SDS011;11821;51.456;8.844;2023-05-28T04:58:00;7.03;;;4.30;;
23304;SDS011;11821;51.456;8.844;2023-05-28T05:00:27;4.40;;;4.00;;
23304;SDS011;11821;51.456;8.844;2023-05-28T05:02:55;5.32;;;4.20;;
23304;SDS011;11821;51.456;8.844;2023-05-28T05:05:23;5.30;;;4.03;;
23304;SDS011;11821;51.456;8.844;2023-05-28T05:07:50;6.55;;;4.43;;
23304;SDS011;11821;51.456;8.844;2023-05-28T05:10:17;7.20;;;4.45;;
23304;SDS011;11821;51.456;8.844;2023-05-28T05:12:44;5.90;;;4.60;;
23304;SDS011;11821;51.456;8.844;2023-05-28T05:15:12;5.00;;;4.25;;
23304;SDS011;11821;51.456;8.844;2023-05-28T05:17:39;11.10;;;4.43;;
23304;SDS011;11821;51.456;8.844;2023-05-28T05:20:06;6.63;;;3.80;;
23304;SDS011;11821;51.456;8.844;2023-05-28T05:22:34;4.85;;;4.20;;
23304;SDS011;11821;51.456;8.844;2023-05-28T05:25:02;8.60;;;3.78;;
23304;SDS011;11821;51.456;8.844;2023-05-28T05:27:28;12.27;;;3.72;;
23304;SDS011;11821;51.456;8.844;2023-05-28T05:29:55;8.43;;;4.22;;
23304;SDS011;11821;51.456;8.844;2023-05-28T05:32:22;4.53;;;3.10;;
23304;SDS011;11821;51.456;8.844;2023-05-28T05:34:49;7.40;;;4.20;;
23304;SDS011;11821;51.456;8.844;2023-05-28T05:37:24;5.30;;;3.83;;
23304;SDS011;11821;51.456;8.844;2023-05-28T05:40:07;5.95;;;4.05;;
23304;SDS011;11821;51.456;8.844;2023-05-28T05:42:53;8.82;;;4.85;;
23304;SDS011;11821;51.456;8.844;2023-05-28T05:45:20;11.98;;;4.90;;
23304;SDS011;11821;51.456;8.844;2023-05-28T05:47:47;4.43;;;3.30;;
23304;SDS011;11821;51.456;8.844;2023-05-28T05:50:14;5.47;;;4.05;;
23304;SDS011;11821;51.456;8.844;2023-05-28T05:52:42;5.80;;;3.83;;
23304;SDS011;11821;51.456;8.844;2023-05-28T05:55:11;6.30;;;4.05;;
23304;SDS011;11821;51.456;8.844;2023-05-28T05:57:38;7.38;;;3.95;;
23304;SDS011;11821;51.456;8.844;2023-05-28T06:00:07;10.60;;;4.55;;
23304;SDS011;11821;51.456;8.844;2023-05-28T06:02:40;7.07;;;4.28;;
23304;SDS011;11821;51.456;8.844;2023-05-28T06:05:25;8.05;;;4.13;;
23304;SDS011;11821;51.456;8.844;2023-05-28T06:08:15;5.32;;;3.92;;
23304;SDS011;11821;51.456;8.844;2023-05-28T06:10:59;7.05;;;3.78;;
23304;SDS011;11821;51.456;8.844;2023-05-28T06:13:25;5.80;;;4.00;;
23304;SDS011;11821;51.456;8.844;2023-05-28T06:15:52;6.35;;;3.88;;
23304;SDS011;11821;51.456;8.844;2023-05-28T06:18:19;5.95;;;3.85;;
23304;SDS011;11821;51.456;8.844;2023-05-28T06:20:47;9.10;;;4.18;;
23304;SDS011;11821;51.456;8.844;2023-05-28T06:23:15;8.43;;;4.65;;
23304;SDS011;11821;51.456;8.844;2023-05-28T06:25:42;5.25;;;3.67;;
23304;SDS011;11821;51.456;8.844;2023-05-28T06:28:10;7.30;;;4.00;;
23304;SDS011;11821;51.456;8.844;2023-05-28T06:30:37;4.95;;;3.53;;
23304;SDS011;11821;51.456;8.844;2023-05-28T06:33:06;6.07;;;3.45;;
23304;SDS011;11821;51.456;8.844;2023-05-28T06:35:34;8.45;;;3.95;;
23304;SDS011;11821;51.456;8.844;2023-05-28T06:38:00;5.20;;;3.55;;
23304;SDS011;11821;51.456;8.844;2023-05-28T06:40:27;6.63;;;4.00;;
23304;SDS011;11821;51.456;8.844;2023-05-28T06:42:53;9.77;;;4.03;;
23304;SDS011;11821;51.456;8.844;2023-05-28T06:45:43;5.18;;;3.65;;
23304;SDS011;11821;51.456;8.844;2023-05-28T06:48:11;6.40;;;3.70;;
23304;SDS011;11821;51.456;8.844;2023-05-28T06:50:38;5.20;;;3.53;;
23304;SDS011;11821;51.456;8.844;2023-05-28T06:53:05;5.93;;;3.78;;
23304;SDS011;11821;51.456;8.844;2023-05-28T06:55:32;9.98;;;3.78;;
23304;SDS011;11821;51.456;8.844;2023-05-28T06:58:31;4.63;;;3.40;;
23304;SDS011;11821;51.456;8.844;2023-05-28T07:01:00;5.45;;;3.03;;
23304;SDS011;11821;51.456;8.844;2023-05-28T07:03:52;7.13;;;3.97;;
23304;SDS011;11821;51.456;8.844;2023-05-28T07:06:30;6.03;;;3.42;;
23304;SDS011;11821;51.456;8.844;2023-05-28T07:08:58;13.20;;;3.08;;
23304;SDS011;11821;51.456;8.844;2023-05-28T07:11:25;5.13;;;3.08;;
23304;SDS011;11821;51.456;8.844;2023-05-28T07:13:52;6.15;;;3.42;;
23304;SDS011;11821;51.456;8.844;2023-05-28T07:16:22;5.55;;;2.90;;
23304;SDS011;11821;51.456;8.844;2023-05-28T07:18:49;6.05;;;3.05;;
23304;SDS011;11821;51.456;8.844;2023-05-28T07:21:17;5.05;;;3.00;;
23304;SDS011;11821;51.456;8.844;2023-05-28T07:23:46;3.92;;;2.53;;
23304;SDS011;11821;51.456;8.844;2023-05-28T07:26:13;5.70;;;2.92;;
23304;SDS011;11821;51.456;8.844;2023-05-28T07:28:40;6.80;;;2.90;;
23304;SDS011;11821;51.456;8.844;2023-05-28T07:31:07;5.00;;;2.50;;
23304;SDS011;11821;51.456;8.844;2023-05-28T07:33:35;6.03;;;2.67;;
23304;SDS011;11821;51.456;8.844;2023-05-28T07:36:03;7.20;;;2.60;;
23304;SDS011;11821;51.456;8.844;2023-05-28T07:38:31;4.90;;;2.88;;
23304;SDS011;11821;51.456;8.844;2023-05-28T07:41:00;4.75;;;2.63;;
23304;SDS011;11821;51.456;8.844;2023-05-28T07:43:47;5.40;;;2.55;;
23304;SDS011;11821;51.456;8.844;2023-05-28T07:46:20;5.07;;;2.78;;
23304;SDS011;11821;51.456;8.844;2023-05-28T07:48:51;5.97;;;2.85;;
23304;SDS011;11821;51.456;8.844;2023-05-28T07:51:24;5.47;;;2.67;;
23304;SDS011;11821;51.456;8.844;2023-05-28T07:54:01;3.50;;;2.55;;
23304;SDS011;11821;51.456;8.844;2023-05-28T07:56:28;4.53;;;2.60;;
23304;SDS011;11821;51.456;8.844;2023-05-28T07:58:56;7.45;;;2.83;;
23304;SDS011;11821;51.456;8.844;2023-05-28T08:01:23;6.95;;;3.08;;
23304;SDS011;11821;51.456;8.844;2023-05-28T08:03:50;4.30;;;2.60;;
23304;SDS011;11821;51.456;8.844;2023-05-28T08:06:23;3.95;;;2.50;;
23304;SDS011;11821;51.456;8.844;2023-05-28T08:08:51;5.75;;;2.58;;
23304;SDS011;11821;51.456;8.844;2023-05-28T08:11:18;3.38;;;2.50;;
23304;SDS011;11821;51.456;8.844;2023-05-28T08:13:52;3.90;;;2.47;;
23304;SDS011;11821;51.456;8.844;2023-05-28T08:16:24;4.75;;;2.67;;
23304;SDS011;11821;51.456;8.844;2023-05-28T08:19:17;5.32;;;2.47;;
23304;SDS011;11821;51.456;8.844;2023-05-28T08:21:47;3.65;;;2.35;;
23304;SDS011;11821;51.456;8.844;2023-05-28T08:24:15;4.47;;;2.58;;
23304;SDS011;11821;51.456;8.844;2023-05-28T08:26:43;5.63;;;2.78;;
23304;SDS011;11821;51.456;8.844;2023-05-28T08:29:11;3.78;;;2.30;;
23304;SDS011;11821;51.456;8.844;2023-05-28T08:31:44;4.45;;;2.58;;
23304;SDS011;11821;51.456;8.844;2023-05-28T08:34:19;5.95;;;2.90;;
23304;SDS011;11821;51.456;8.844;2023-05-28T08:36:50;5.10;;;2.15;;
23304;SDS011;11821;51.456;8.844;2023-05-28T08:39:26;6.20;;;2.60;;
23304;SDS011;11821;51.456;8.844;2023-05-28T08:42:01;3.08;;;2.00;;
23304;SDS011;11821;51.456;8.844;2023-05-28T08:44:30;7.10;;;2.60;;
23304;SDS011;11821;51.456;8.844;2023-05-28T08:46:57;5.57;;;2.47;;
23304;SDS011;11821;51.456;8.844;2023-05-28T08:49:31;4.10;;;2.70;;
23304;SDS011;11821;51.456;8.844;2023-05-28T08:52:05;4.57;;;2.60;;
23304;SDS011;11821;51.456;8.844;2023-05-28T08:54:35;5.40;;;2.70;;
23304;SDS011;11821;51.456;8.844;2023-05-28T08:57:06;5.97;;;2.80;;
23304;SDS011;11821;51.456;8.844;2023-05-28T08:59:44;3.95;;;2.20;;
23304;SDS011;11821;51.456;8.844;2023-05-28T09:02:12;7.05;;;2.33;;
23304;SDS011;11821;51.456;8.844;2023-05-28T09:04:41;4.68;;;2.63;;
23304;SDS011;11821;51.456;8.844;2023-05-28T09:07:13;4.45;;;2.47;;
23304;SDS011;11821;51.456;8.844;2023-05-28T09:09:51;3.60;;;2.72;;
23304;SDS011;11821;51.456;8.844;2023-05-28T09:12:20;5.70;;;2.70;;
23304;SDS011;11821;51.456;8.844;2023-05-28T09:14:50;6.07;;;3.28;;
23304;SDS011;11821;51.456;8.844;2023-05-28T09:17:35;6.70;;;2.92;;
23304;SDS011;11821;51.456;8.844;2023-05-28T09:20:10;6.53;;;2.63;;
23304;SDS011;11821;51.456;8.844;2023-05-28T09:22:40;7.40;;;3.00;;
23304;SDS011;11821;51.456;8.844;2023-05-28T09:25:27;4.88;;;3.13;;
23304;SDS011;11821;51.456;8.844;2023-05-28T09:28:01;6.18;;;3.50;;
23304;SDS011;11821;51.456;8.844;2023-05-28T09:30:29;6.80;;;3.13;;
23304;SDS011;11821;51.456;8.844;2023-05-28T09:33:09;5.75;;;3.20;;
23304;SDS011;11821;51.456;8.844;2023-05-28T09:35:36;5.55;;;2.75;;
23304;SDS011;11821;51.456;8.844;2023-05-28T09:38:04;6.15;;;3.03;;
23304;SDS011;11821;51.456;8.844;2023-05-28T09:40:39;5.70;;;2.80;;
23304;SDS011;11821;51.456;8.844;2023-05-28T09:43:14;5.28;;;3.10;;
23304;SDS011;11821;51.456;8.844;2023-05-28T09:45:42;3.72;;;3.22;;
23304;SDS011;11821;51.456;8.844;2023-05-28T09:48:08;6.30;;;2.50;;
23304;SDS011;11821;51.456;8.844;2023-05-28T09:50:39;4.75;;;2.63;;
23304;SDS011;11821;51.456;8.844;2023-05-28T09:53:12;5.40;;;3.35;;
23304;SDS011;11821;51.456;8.844;2023-05-28T09:55:43;4.25;;;2.45;;
23304;SDS011;11821;51.456;8.844;2023-05-28T09:58:10;4.35;;;2.90;;
23304;SDS011;11821;51.456;8.844;2023-05-28T10:00:40;4.97;;;2.65;;
23304;SDS011;11821;51.456;8.844;2023-05-28T10:05:52;3.13;;;2.60;;
23304;SDS011;11821;51.456;8.844;2023-05-28T10:08:28;5.32;;;3.13;;
23304;SDS011;11821;51.456;8.844;2023-05-28T10:10:57;4.07;;;2.80;;
23304;SDS011;11821;51.456;8.844;2023-05-28T10:13:24;3.88;;;2.50;;
23304;SDS011;11821;51.456;8.844;2023-05-28T10:15:52;3.60;;;2.50;;
23304;SDS011;11821;51.456;8.844;2023-05-28T10:18:30;5.93;;;3.30;;
23304;SDS011;11821;51.456;8.844;2023-05-28T10:20:57;6.47;;;3.42;;
23304;SDS011;11821;51.456;8.844;2023-05-28T10:23:25;4.10;;;2.72;;
23304;SDS011;11821;51.456;8.844;2023-05-28T10:25:54;4.13;;;2.65;;
23304;SDS011;11821;51.456;8.844;2023-05-28T10:28:25;4.27;;;2.77;;
23304;SDS011;11821;51.456;8.844;2023-05-28T10:31:03;4.35;;;2.83;;
23304;SDS011;11821;51.456;8.844;2023-05-28T10:33:36;6.40;;;2.90;;
23304;SDS011;11821;51.456;8.844;2023-05-28T10:36:18;3.83;;;2.80;;
23304;SDS011;11821;51.456;8.844;2023-05-28T10:38:56;8.85;;;2.60;;
23304;SDS011;11821;51.456;8.844;2023-05-28T10:41:36;2.90;;;2.20;;
23304;SDS011;11821;51.456;8.844;2023-05-28T10:44:06;4.32;;;2.65;;
23304;SDS011;11821;51.456;8.844;2023-05-28T10:46:40;3.97;;;2.97;;
23304;SDS011;11821;51.456;8.844;2023-05-28T10:49:11;3.58;;;2.30;;
23304;SDS011;11821;51.456;8.844;2023-05-28T10:51:44;3.78;;;2.92;;
23304;SDS011;11821;51.456;8.844;2023-05-28T10:57:15;6.15;;;2.50;;
23304;SDS011;11821;51.456;8.844;2023-05-28T10:59:50;6.78;;;3.03;;
23304;SDS011;11821;51.456;8.844;2023-05-28T11:02:35;4.53;;;2.58;;
23304;SDS011;11821;51.456;8.844;2023-05-28T11:05:31;4.45;;;2.92;;
23304;SDS011;11821;51.456;8.844;2023-05-28T11:08:08;3.13;;;1.90;;
23304;SDS011;11821;51.456;8.844;2023-05-28T11:10:44;4.55;;;2.65;;
23304;SDS011;11821;51.456;8.844;2023-05-28T11:13:15;5.63;;;2.60;;
23304;SDS011;11821;51.456;8.844;2023-05-28T11:15:43;4.50;;;2.58;;
23304;SDS011;11821;51.456;8.844;2023-05-28T11:18:11;4.53;;;2.58;;
23304;SDS011;11821;51.456;8.844;2023-05-28T11:20:47;5.35;;;2.60;;
23304;SDS011;11821;51.456;8.844;2023-05-28T11:23:31;5.90;;;2.60;;
23304;SDS011;11821;51.456;8.844;2023-05-28T11:26:06;2.70;;;2.42;;
23304;SDS011;11821;51.456;8.844;2023-05-28T11:28:52;4.40;;;2.95;;
23304;SDS011;11821;51.456;8.844;2023-05-28T11:31:28;3.47;;;2.50;;
23304;SDS011;11821;51.456;8.844;2023-05-28T11:34:00;9.68;;;2.33;;
23304;SDS011;11821;51.456;8.844;2023-05-28T11:36:30;5.20;;;2.70;;
23304;SDS011;11821;51.456;8.844;2023-05-28T11:39:03;4.03;;;2.75;;
23304;SDS011;11821;51.456;8.844;2023-05-28T11:41:32;3.42;;;2.30;;
23304;SDS011;11821;51.456;8.844;2023-05-28T11:44:02;3.35;;;2.30;;
23304;SDS011;11821;51.456;8.844;2023-05-28T11:46:43;4.38;;;2.30;;
23304;SDS011;11821;51.456;8.844;2023-05-28T11:49:10;5.30;;;2.60;;
23304;SDS011;11821;51.456;8.844;2023-05-28T11:51:37;4.10;;;2.60;;
23304;SDS011;11821;51.456;8.844;2023-05-28T11:54:13;2.47;;;2.20;;
23304;SDS011;11821;51.456;8.844;2023-05-28T11:56:41;6.47;;;3.05;;
23304;SDS011;11821;51.456;8.844;2023-05-28T11:59:07;4.15;;;2.40;;
23304;SDS011;11821;51.456;8.844;2023-05-28T12:01:35;2.53;;;2.20;;
23304;SDS011;11821;51.456;8.844;2023-05-28T12:04:05;5.07;;;2.40;;
23304;SDS011;11821;51.456;8.844;2023-05-28T12:06:33;4.05;;;2.88;;
23304;SDS011;11821;51.456;8.844;2023-05-28T12:09:04;5.47;;;2.55;;
23304;SDS011;11821;51.456;8.844;2023-05-28T12:11:32;3.40;;;2.45;;
23304;SDS011;11821;51.456;8.844;2023-05-28T12:14:07;4.80;;;2.53;;
23304;SDS011;11821;51.456;8.844;2023-05-28T12:16:44;2.70;;;2.27;;
23304;SDS011;11821;51.456;8.844;2023-05-28T12:19:16;3.60;;;2.35;;
23304;SDS011;11821;51.456;8.844;2023-05-28T12:21:43;2.60;;;1.80;;
23304;SDS011;11821;51.456;8.844;2023-05-28T12:24:14;2.17;;;1.73;;
23304;SDS011;11821;51.456;8.844;2023-05-28T12:26:41;2.20;;;2.00;;
23304;SDS011;11821;51.456;8.844;2023-05-28T12:29:08;4.97;;;2.40;;
23304;SDS011;11821;51.456;8.844;2023-05-28T12:31:34;2.47;;;2.20;;
23304;SDS011;11821;51.456;8.844;2023-05-28T12:34:01;3.08;;;1.92;;
23304;SDS011;11821;51.456;8.844;2023-05-28T12:36:28;2.72;;;2.08;;
23304;SDS011;11821;51.456;8.844;2023-05-28T12:38:54;2.22;;;1.90;;
23304;SDS011;11821;51.456;8.844;2023-05-28T12:41:27;3.85;;;2.20;;
23304;SDS011;11821;51.456;8.844;2023-05-28T12:43:54;3.95;;;2.17;;
23304;SDS011;11821;51.456;8.844;2023-05-28T12:46:21;2.90;;;1.98;;
23304;SDS011;11821;51.456;8.844;2023-05-28T12:48:51;3.25;;;1.98;;
23304;SDS011;11821;51.456;8.844;2023-05-28T12:51:17;2.35;;;1.75;;
23304;SDS011;11821;51.456;8.844;2023-05-28T12:53:44;2.75;;;2.40;;
23304;SDS011;11821;51.456;8.844;2023-05-28T12:56:11;3.53;;;2.30;;
23304;SDS011;11821;51.456;8.844;2023-05-28T12:58:38;3.08;;;2.30;;
23304;SDS011;11821;51.456;8.844;2023-05-28T13:01:04;2.85;;;1.95;;
23304;SDS011;11821;51.456;8.844;2023-05-28T13:03:31;1.98;;;1.70;;
23304;SDS011;11821;51.456;8.844;2023-05-28T13:05:58;4.32;;;2.55;;
23304;SDS011;11821;51.456;8.844;2023-05-28T13:08:24;9.68;;;8.75;;
23304;SDS011;11821;51.456;8.844;2023-05-28T13:10:54;3.33;;;3.03;;
23304;SDS011;11821;51.456;8.844;2023-05-28T13:13:21;3.92;;;2.70;;
23304;SDS011;11821;51.456;8.844;2023-05-28T13:15:48;4.38;;;3.88;;
23304;SDS011;11821;51.456;8.844;2023-05-28T13:18:17;3.85;;;2.50;;
23304;SDS011;11821;51.456;8.844;2023-05-28T13:20:44;4.82;;;2.60;;
23304;SDS011;11821;51.456;8.844;2023-05-28T13:23:12;3.35;;;2.30;;
23304;SDS011;11821;51.456;8.844;2023-05-28T13:25:39;4.38;;;2.70;;
23304;SDS011;11821;51.456;8.844;2023-05-28T13:28:06;5.53;;;2.60;;
23304;SDS011;11821;51.456;8.844;2023-05-28T13:30:33;2.85;;;2.05;;
23304;SDS011;11821;51.456;8.844;2023-05-28T13:33:00;2.60;;;2.20;;
23304;SDS011;11821;51.456;8.844;2023-05-28T13:35:26;2.65;;;2.13;;
23304;SDS011;11821;51.456;8.844;2023-05-28T13:37:53;3.22;;;2.15;;
23304;SDS011;11821;51.456;8.844;2023-05-28T13:40:22;3.70;;;2.20;;
23304;SDS011;11821;51.456;8.844;2023-05-28T13:42:50;3.40;;;2.10;;
23304;SDS011;11821;51.456;8.844;2023-05-28T13:45:17;4.22;;;2.40;;
23304;SDS011;11821;51.456;8.844;2023-05-28T13:47:43;3.10;;;2.10;;
23304;SDS011;11821;51.456;8.844;2023-05-28T13:50:11;2.25;;;1.88;;
23304;SDS011;11821;51.456;8.844;2023-05-28T13:52:38;2.58;;;1.98;;
23304;SDS011;11821;51.456;8.844;2023-05-28T13:55:04;3.33;;;2.00;;
23304;SDS011;11821;51.456;8.844;2023-05-28T13:57:32;2.38;;;1.70;;
23304;SDS011;11821;51.456;8.844;2023-05-28T13:59:58;4.25;;;2.20;;
23304;SDS011;11821;51.456;8.844;2023-05-28T14:02:35;2.95;;;2.13;;
23304;SDS011;11821;51.456;8.844;2023-05-28T14:05:03;3.30;;;2.10;;
23304;SDS011;11821;51.456;8.844;2023-05-28T14:07:32;2.05;;;1.63;;
23304;SDS011;11821;51.456;8.844;2023-05-28T14:09:58;3.63;;;1.75;;
23304;SDS011;11821;51.456;8.844;2023-05-28T14:12:26;2.65;;;1.85;;
23304;SDS011;11821;51.456;8.844;2023-05-28T14:14:52;2.40;;;1.73;;
23304;SDS011;11821;51.456;8.844;2023-05-28T14:17:19;2.45;;;1.90;;
23304;SDS011;11821;51.456;8.844;2023-05-28T14:19:46;4.72;;;2.40;;
23304;SDS011;11821;51.456;8.844;2023-05-28T14:22:12;2.63;;;1.83;;
23304;SDS011;11821;51.456;8.844;2023-05-28T14:24:39;3.13;;;2.20;;
23304;SDS011;11821;51.456;8.844;2023-05-28T14:27:06;2.40;;;2.05;;
23304;SDS011;11821;51.456;8.844;2023-05-28T14:29:34;3.72;;;2.50;;
23304;SDS011;11821;51.456;8.844;2023-05-28T14:32:04;4.57;;;2.10;;
23304;SDS011;11821;51.456;8.844;2023-05-28T14:34:30;3.28;;;2.15;;
23304;SDS011;11821;51.456;8.844;2023-05-28T14:36:57;2.35;;;1.92;;
23304;SDS011;11821;51.456;8.844;2023-05-28T14:39:26;2.10;;;1.70;;
23304;SDS011;11821;51.456;8.844;2023-05-28T14:41:53;3.55;;;2.22;;
23304;SDS011;11821;51.456;8.844;2023-05-28T14:44:20;2.95;;;2.03;;
23304;SDS011;11821;51.456;8.844;2023-05-28T14:46:47;2.90;;;2.13;;
23304;SDS011;11821;51.456;8.844;2023-05-28T14:49:14;5.07;;;2.30;;
23304;SDS011;11821;51.456;8.844;2023-05-28T14:51:40;2.10;;;1.75;;
23304;SDS011;11821;51.456;8.844;2023-05-28T14:54:07;2.08;;;1.88;;
23304;SDS011;11821;51.456;8.844;2023-05-28T14:56:34;3.63;;;1.90;;
23304;SDS011;11821;51.456;8.844;2023-05-28T14:59:01;4.93;;;1.88;;
23304;SDS011;11821;51.456;8.844;2023-05-28T15:01:28;2.90;;;2.42;;
23304;SDS011;11821;51.456;8.844;2023-05-28T15:03:55;2.15;;;1.85;;
23304;SDS011;11821;51.456;8.844;2023-05-28T15:06:21;3.08;;;1.98;;
23304;SDS011;11821;51.456;8.844;2023-05-28T15:08:48;3.25;;;2.00;;
23304;SDS011;11821;51.456;8.844;2023-05-28T15:11:15;3.05;;;2.25;;